Time;durP1;ratioP1;P1;durP2;ratioP2;P2;SDS_P1;SDS_P2;PMS_P1;PMS_P2;Temp;Humidity;BMP_temperature;BMP_pressure;BME280_temperature;BME280_humidity;BME280_pressure;Samples;Min_cycle;Max_cycle;Signal;HPM_P1;HPM_P2
2021/05/31 00:00:31;;;;;;;;;;;;;;;;;;2132465;67;1979;-69
2021/05/31 00:02:56;;;;;;;;;;;;;;;;;;2132716;59;1424;-69
2021/05/31 00:05:24;;;;;;;;;;;;;;;;;;2133052;67;1260;-69
2021/05/31 00:07:50;;;;;;;;;;;;;;;;;;2132391;67;1286;-69
2021/05/31 00:10:15;;;;;;;;;;;;;;;;;;2132426;67;1993;-69
2021/05/31 00:12:40;;;;;;;;;;;;;;;;;;2132351;59;2192;-69
2021/05/31 00:15:06;;;;;;;;;;;;;;;;;;2132376;59;1333;-69
2021/05/31 00:17:31;;;;;;;;;;;;;;;;;;2132766;67;1388;-69
2021/05/31 00:19:57;;;;;;;;;;;;;;;;;;2131954;67;1918;-69
2021/05/31 00:22:23;;;;;;;;;;;;;;;;;;2131297;59;2904;-69
2021/05/31 00:24:48;;;;;;;;;;;;;;;;;;2131233;66;1266;-69
2021/05/31 00:27:14;;;;;;;;;;;;;;;;;;2131462;67;1386;-68
2021/05/31 00:29:39;;;;;;;;;;;;;;;;;;2131760;59;1486;-70
2021/05/31 00:32:05;;;;;;;;;;;;;;;;;;2128954;59;1555;-69
2021/05/31 00:34:30;;;;;;;;;;;;;;;;;;2133110;67;1171;-69
2021/05/31 00:36:55;;;;;;;;;;;;;;;;;;2133646;67;1499;-69
2021/05/31 00:39:21;;;;;;;;;;;;;;;;;;2133234;67;1924;-68
2021/05/31 00:41:49;;;;;;;;;;;;;;;;;;2133222;67;1157;-70
2021/05/31 00:44:17;;;;;;;;;;;;;;;;;;2132248;67;1150;-70
2021/05/31 00:46:42;;;;;;;;;;;;;;;;;;2132709;67;1061;-69
2021/05/31 00:49:07;;;;;;;;;;;;;;;;;;2132350;67;1239;-69
2021/05/31 00:51:33;;;;;;;;;;;;;;;;;;2132424;67;1313;-70
2021/05/31 00:53:59;;;;;;;;;;;;;;;;;;2132648;67;1248;-69
2021/05/31 00:56:24;;;;;;;;;;;;;;;;;;2130066;67;1014;-69
2021/05/31 00:58:49;;;;;;;;;;;;;;;;;;2132812;67;1679;-70
2021/05/31 01:01:15;;;;;;;;;;;;;;;;;;2132758;67;1979;-68
2021/05/31 01:03:40;;;;;;;;;;;;;;;;;;2129147;59;2008;-71
2021/05/31 01:06:07;;;;;;;;;;;;;;;;;;2132601;67;1078;-71
2021/05/31 01:08:46;;;;;;;;;;;;;;;;;;2132696;59;1599;-71
2021/05/31 01:11:12;;;;;;;;;;;;;;;;;;2130861;59;1976;-72
2021/05/31 01:13:40;;;;;;;;;;;;;;;;;;2132276;67;1882;-71
2021/05/31 01:16:09;;;;;;;;;;;;;;;;;;2132471;67;1199;-72
2021/05/31 01:18:42;;;;;;;;;;;;;;;;;;2132828;67;1288;-70
2021/05/31 01:21:26;;;;;;;;;;;;;;;;;;2132060;67;1932;-71
2021/05/31 01:23:57;;;;;;;;;;;;;;;;;;2131387;59;2567;-70
2021/05/31 01:26:23;;;;;;;;;;;;;;;;;;2130191;66;1820;-70
2021/05/31 01:29:06;;;;;;;;;;;;;;;;;;2133036;59;1416;-70
2021/05/31 01:31:46;;;;;;;;;;;;;;;;;;2133041;67;1552;-70
2021/05/31 01:34:13;;;;;;;;;;;;;;;;;;2133097;59;1317;-69
2021/05/31 01:36:43;;;;;;;;;;;;;;;;;;2133799;66;1255;-70
2021/05/31 01:39:08;;;;;;;;;;;;;;;;;;2132961;67;1968;-69
2021/05/31 01:41:34;;;;;;;;;;;;;;;;;;2133702;66;1142;-70
2021/05/31 01:43:59;;;;;;;;;;;;;;;;;;2133118;67;1081;-69
2021/05/31 01:46:25;;;;;;;;;;;;;;;;;;2133067;67;1113;-70
2021/05/31 01:48:51;;;;;;;;;;;;;;;;;;2133388;59;1519;-69
2021/05/31 01:51:16;;;;;;;;;;;;;;;;;;2133053;67;1167;-69
2021/05/31 01:53:42;;;;;;;;;;;;;;;;;;2133568;67;1145;-69
2021/05/31 01:56:07;;;;;;;;;;;;;;;;;;2131097;67;1149;-69
2021/05/31 01:58:33;;;;;;;;;;;;;;;;;;2132951;67;1326;-69
2021/05/31 02:00:59;;;;;;;;;;;;;;;;;;2129232;67;1995;-69
2021/05/31 02:03:24;;;;;;;;;;;;;;;;;;2129478;67;1196;-71
2021/05/31 02:05:49;;;;;;;;;;;;;;;;;;2133001;67;1170;-68
2021/05/31 02:08:14;;;;;;;;;;;;;;;;;;2132702;67;1239;-70
2021/05/31 02:10:39;;;;;;;;;;;;;;;;;;2132588;67;1482;-69
2021/05/31 02:13:05;;;;;;;;;;;;;;;;;;2132688;59;1997;-71
2021/05/31 02:15:35;;;;;;;;;;;;;;;;;;2132037;59;1386;-70
2021/05/31 02:18:06;;;;;;;;;;;;;;;;;;2132636;67;1706;-71
2021/05/31 02:20:32;;;;;;;;;;;;;;;;;;2132164;67;1922;-71
2021/05/31 02:22:58;;;;;;;;;;;;;;;;;;2131686;59;2107;-70
2021/05/31 02:25:25;;;;;;;;;;;;;;;;;;2128927;59;2472;-69
2021/05/31 02:27:50;;;;;;;;;;;;;;;;;;2132376;59;1325;-70
2021/05/31 02:30:17;;;;;;;;;;;;;;;;;;2132628;59;1199;-71
2021/05/31 02:32:49;;;;;;;;;;;;;;;;;;2131883;59;1282;-69
2021/05/31 02:35:16;;;;;;;;;;;;;;;;;;2132588;67;1087;-71
2021/05/31 02:37:41;;;;;;;;;;;;;;;;;;2132882;67;1258;-70
2021/05/31 02:40:07;;;;;;;;;;;;;;;;;;2132593;67;1994;-69
2021/05/31 02:42:39;;;;;;;;;;;;;;;;;;2132473;67;1355;-71
2021/05/31 02:45:04;;;;;;;;;;;;;;;;;;2132811;67;1897;-70
2021/05/31 02:47:30;;;;;;;;;;;;;;;;;;2132876;67;1222;-71
2021/05/31 02:49:55;;;;;;;;;;;;;;;;;;2131972;67;1327;-69
2021/05/31 02:52:20;;;;;;;;;;;;;;;;;;2133056;67;1149;-71
2021/05/31 02:54:45;;;;;;;;;;;;;;;;;;2131500;67;1169;-70
2021/05/31 02:57:10;;;;;;;;;;;;;;;;;;2128575;67;1544;-70
2021/05/31 02:59:35;;;;;;;;;;;;;;;;;;2133161;67;1912;-70
2021/05/31 03:02:01;;;;;;;;;;;;;;;;;;2132629;67;1108;-70
2021/05/31 03:04:26;;;;;;;;;;;;;;;;;;2129141;67;1133;-71
2021/05/31 03:06:51;;;;;;;;;;;;;;;;;;2132435;59;1429;-70
2021/05/31 03:09:16;;;;;;;;;;;;;;;;;;2133014;67;1391;-71
2021/05/31 03:11:41;;;;;;;;;;;;;;;;;;2131968;59;1846;-71
2021/05/31 03:14:06;;;;;;;;;;;;;;;;;;2132390;67;1152;-71
2021/05/31 03:16:32;;;;;;;;;;;;;;;;;;2128647;59;1264;-69
2021/05/31 03:18:57;;;;;;;;;;;;;;;;;;2128535;67;1976;-70
2021/05/31 03:21:22;;;;;;;;;;;;;;;;;;2129140;67;1996;-70
2021/05/31 03:23:47;;;;;;;;;;;;;;;;;;2132388;67;2622;-70
2021/05/31 03:26:12;;;;;;;;;;;;;;;;;;2128943;59;2742;-71
2021/05/31 03:28:38;;;;;;;;;;;;;;;;;;2132412;59;1860;-69
2021/05/31 03:31:03;;;;;;;;;;;;;;;;;;2131811;67;1167;-71
2021/05/31 03:33:28;;;;;;;;;;;;;;;;;;2132781;59;1375;-71
2021/05/31 03:35:53;;;;;;;;;;;;;;;;;;2129419;67;1417;-71
2021/05/31 03:38:18;;;;;;;;;;;;;;;;;;2133530;66;1368;-71
2021/05/31 03:40:43;;;;;;;;;;;;;;;;;;2132827;67;1974;-71
2021/05/31 03:43:09;;;;;;;;;;;;;;;;;;2133059;67;1168;-70
2021/05/31 03:45:34;;;;;;;;;;;;;;;;;;2133495;67;1281;-71
2021/05/31 03:47:59;;;;;;;;;;;;;;;;;;2133093;59;1360;-70
2021/05/31 03:50:24;;;;;;;;;;;;;;;;;;2133337;67;1308;-71
2021/05/31 03:52:50;;;;;;;;;;;;;;;;;;2132979;60;1116;-70
2021/05/31 03:55:15;;;;;;;;;;;;;;;;;;2130830;67;1237;-68
2021/05/31 03:57:41;;;;;;;;;;;;;;;;;;2133142;67;1237;-71
2021/05/31 04:00:07;;;;;;;;;;;;;;;;;;2133031;67;1921;-71
2021/05/31 04:02:33;;;;;;;;;;;;;;;;;;2133284;66;1527;-71
2021/05/31 04:04:58;;;;;;;;;;;;;;;;;;2132908;59;1279;-71
2021/05/31 04:12:52;;;;;;;;;;;;;;;;;;2133260;59;2286;-69
2021/05/31 04:15:18;;;;;;;;;;;;;;;;;;2133220;59;1281;-71
2021/05/31 04:17:43;;;;;;;;;;;;;;;;;;2129598;67;1855;-70
2021/05/31 04:20:09;;;;;;;;;;;;;;;;;;2129422;67;1919;-70
2021/05/31 04:22:34;;;;;;;;;;;;;;;;;;2129867;59;1667;-70
2021/05/31 04:24:59;;;;;;;;;;;;;;;;;;2130061;59;2694;-70
2021/05/31 04:27:27;;;;;;;;;;;;;;;;;;2130790;59;2467;-70
2021/05/31 04:29:52;;;;;;;;;;;;;;;;;;2137392;53;2394;-68
2021/05/31 04:32:18;;;;;;;;;;;;;;;;;;2133018;59;1383;-69
2021/05/31 04:34:44;;;;;;;;;;;;;;;;;;2130657;67;1159;-70
2021/05/31 04:37:09;;;;;;;;;;;;;;;;;;2129590;59;1407;-70
2021/05/31 04:39:35;;;;;;;;;;;;;;;;;;2127895;67;1974;-69
2021/05/31 04:42:00;;;;;;;;;;;;;;;;;;2128173;59;1199;-70
2021/05/31 04:44:26;;;;;;;;;;;;;;;;;;2128387;67;1513;-68
2021/05/31 04:46:51;;;;;;;;;;;;;;;;;;2128924;59;1095;-68
2021/05/31 04:49:17;;;;;;;;;;;;;;;;;;2127827;67;1344;-68
2021/05/31 04:51:43;;;;;;;;;;;;;;;;;;2130575;67;1223;-68
2021/05/31 04:54:08;;;;;;;;;;;;;;;;;;2129471;67;1222;-68
2021/05/31 04:56:34;;;;;;;;;;;;;;;;;;2132366;66;1142;-68
2021/05/31 04:58:59;;;;;;;;;;;;;;;;;;2127420;67;1141;-68
2021/05/31 05:01:24;;;;;;;;;;;;;;;;;;2128744;67;1926;-71
2021/05/31 05:03:49;;;;;;;;;;;;;;;;;;2128373;59;1245;-68
2021/05/31 05:06:14;;;;;;;;;;;;;;;;;;2127371;67;1134;-68
2021/05/31 05:08:39;;;;;;;;;;;;;;;;;;2128085;59;1663;-68
2021/05/31 05:11:05;;;;;;;;;;;;;;;;;;2128855;59;2169;-68
2021/05/31 05:13:30;;;;;;;;;;;;;;;;;;2129348;67;1231;-68
2021/05/31 05:15:55;;;;;;;;;;;;;;;;;;2130436;59;1354;-68
2021/05/31 05:18:20;;;;;;;;;;;;;;;;;;2129248;67;1191;-68
2021/05/31 05:20:45;;;;;;;;;;;;;;;;;;2128429;67;1992;-68
2021/05/31 05:23:10;;;;;;;;;;;;;;;;;;2127101;67;1172;-68
2021/05/31 05:25:36;;;;;;;;;;;;;;;;;;2125846;59;2516;-68
2021/05/31 05:28:01;;;;;;;;;;;;;;;;;;2128464;59;2471;-68
2021/05/31 05:30:29;;;;;;;;;;;;;;;;;;2128923;67;1320;-68
2021/05/31 05:32:59;;;;;;;;;;;;;;;;;;2126878;59;1274;-68
2021/05/31 05:35:32;;;;;;;;;;;;;;;;;;2128763;67;974;-68
2021/05/31 05:38:09;;;;;;;;;;;;;;;;;;2127812;67;1191;-68
2021/05/31 05:48:10;;;;;;;;;;;;;;;;;;2129651;59;1297;-68
2021/05/31 05:50:35;;;;;;;;;;;;;;;;;;2129771;67;1176;-68
2021/05/31 05:53:00;;;;;;;;;;;;;;;;;;2127629;67;1260;-68
2021/05/31 05:55:25;;;;;;;;;;;;;;;;;;2126233;67;1196;-68
2021/05/31 05:57:51;;;;;;;;;;;;;;;;;;2129088;67;1160;-68
2021/05/31 06:00:18;;;;;;;;;;;;;;;;;;2127466;67;1943;-68
2021/05/31 06:02:43;;;;;;;;;;;;;;;;;;2132217;66;1414;-68
2021/05/31 06:05:09;;;;;;;;;;;;;;;;;;2127335;59;1293;-68
2021/05/31 06:07:34;;;;;;;;;;;;;;;;;;2130041;66;1106;-68
2021/05/31 06:10:01;;;;;;;;;;;;;;;;;;2127958;67;1527;-68
2021/05/31 06:12:26;;;;;;;;;;;;;;;;;;2132534;59;2169;-68
2021/05/31 06:14:51;;;;;;;;;;;;;;;;;;2129312;59;1433;-68
2021/05/31 06:17:16;;;;;;;;;;;;;;;;;;2126519;67;1289;-68
2021/05/31 06:19:41;;;;;;;;;;;;;;;;;;2127389;67;1995;-68
2021/05/31 06:22:07;;;;;;;;;;;;;;;;;;2128693;66;1530;-68
2021/05/31 06:24:32;;;;;;;;;;;;;;;;;;2130494;66;1213;-68
2021/05/31 06:26:57;;;;;;;;;;;;;;;;;;2126099;67;2727;-68
2021/05/31 06:29:22;;;;;;;;;;;;;;;;;;2126503;59;2294;-68
2021/05/31 06:31:47;;;;;;;;;;;;;;;;;;2126946;59;1825;-68
2021/05/31 06:34:13;;;;;;;;;;;;;;;;;;2127928;59;2016;-68
2021/05/31 06:36:41;;;;;;;;;;;;;;;;;;2129572;67;1363;-68
2021/05/31 06:39:07;;;;;;;;;;;;;;;;;;2127089;66;1559;-68
2021/05/31 06:41:34;;;;;;;;;;;;;;;;;;2126525;67;1941;-68
2021/05/31 06:43:59;;;;;;;;;;;;;;;;;;2127954;67;1270;-69
2021/05/31 06:46:24;;;;;;;;;;;;;;;;;;2127823;67;2217;-68
2021/05/31 06:48:49;;;;;;;;;;;;;;;;;;2127267;67;1354;-68
2021/05/31 06:51:14;;;;;;;;;;;;;;;;;;2127538;67;1107;-68
2021/05/31 06:53:40;;;;;;;;;;;;;;;;;;2129601;66;1091;-68
2021/05/31 06:56:05;;;;;;;;;;;;;;;;;;2124445;67;1298;-68
2021/05/31 06:58:30;;;;;;;;;;;;;;;;;;2128284;67;1471;-68
2021/05/31 07:00:55;;;;;;;;;;;;;;;;;;2127415;59;2083;-68
2021/05/31 07:03:21;;;;;;;;;;;;;;;;;;2125895;67;1172;-68
2021/05/31 07:05:46;;;;;;;;;;;;;;;;;;2127155;67;1287;-69
2021/05/31 07:08:11;;;;;;;;;;;;;;;;;;2129289;59;1385;-68
2021/05/31 07:10:36;;;;;;;;;;;;;;;;;;2132077;59;2181;-68
2021/05/31 07:13:02;;;;;;;;;;;;;;;;;;2129931;66;1351;-68
2021/05/31 07:15:28;;;;;;;;;;;;;;;;;;2127858;59;1290;-68
2021/05/31 07:17:53;;;;;;;;;;;;;;;;;;2127258;66;1975;-68
2021/05/31 07:20:19;;;;;;;;;;;;;;;;;;2128774;59;1975;-68
2021/05/31 07:22:44;;;;;;;;;;;;;;;;;;2128127;59;1722;-68
2021/05/31 07:25:10;;;;;;;;;;;;;;;;;;2124939;59;1579;-68
2021/05/31 07:27:36;;;;;;;;;;;;;;;;;;2126830;59;2225;-68
2021/05/31 07:30:01;;;;;;;;;;;;;;;;;;2128112;59;2473;-69
2021/05/31 07:32:27;;;;;;;;;;;;;;;;;;2129390;59;1273;-69
2021/05/31 07:34:52;;;;;;;;;;;;;;;;;;2129139;67;1121;-69
2021/05/31 07:37:17;;;;;;;;;;;;;;;;;;2126839;59;2365;-69
2021/05/31 07:39:42;;;;;;;;;;;;;;;;;;2129754;66;1918;-69
2021/05/31 07:42:08;;;;;;;;;;;;;;;;;;2128218;67;1426;-69
2021/05/31 07:44:33;;;;;;;;;;;;;;;;;;2127520;67;1140;-69
2021/05/31 07:46:58;;;;;;;;;;;;;;;;;;2128253;59;1247;-69
2021/05/31 07:49:24;;;;;;;;;;;;;;;;;;2126788;67;1400;-69
2021/05/31 07:51:51;;;;;;;;;;;;;;;;;;2127806;67;1323;-69
2021/05/31 07:54:16;;;;;;;;;;;;;;;;;;2130158;66;1225;-69
2021/05/31 07:56:41;;;;;;;;;;;;;;;;;;2128337;67;1171;-67
2021/05/31 07:59:07;;;;;;;;;;;;;;;;;;2130388;59;2388;-69
2021/05/31 08:01:33;;;;;;;;;;;;;;;;;;2128812;67;1937;-67
2021/05/31 08:03:59;;;;;;;;;;;;;;;;;;2128400;67;1844;-68
2021/05/31 08:06:25;;;;;;;;;;;;;;;;;;2127333;67;1429;-67
2021/05/31 08:08:50;;;;;;;;;;;;;;;;;;2127768;60;1612;-68
2021/05/31 08:11:15;;;;;;;;;;;;;;;;;;2127867;60;1663;-68
2021/05/31 08:13:41;;;;;;;;;;;;;;;;;;2128498;59;3015;-67
2021/05/31 08:16:07;;;;;;;;;;;;;;;;;;2130660;59;2032;-68
2021/05/31 08:18:33;;;;;;;;;;;;;;;;;;2128649;67;1588;-68
2021/05/31 08:20:58;;;;;;;;;;;;;;;;;;2127544;59;2255;-68
2021/05/31 08:23:23;;;;;;;;;;;;;;;;;;2127678;59;2203;-67
2021/05/31 08:25:49;;;;;;;;;;;;;;;;;;2127517;59;1871;-68
2021/05/31 08:28:14;;;;;;;;;;;;;;;;;;2127724;59;2560;-68
2021/05/31 08:30:41;;;;;;;;;;;;;;;;;;2125981;59;2488;-67
2021/05/31 08:33:07;;;;;;;;;;;;;;;;;;2129304;59;1709;-68
2021/05/31 08:35:32;;;;;;;;;;;;;;;;;;2131216;66;1228;-68
2021/05/31 08:37:58;;;;;;;;;;;;;;;;;;2127734;67;1415;-67
2021/05/31 08:40:24;;;;;;;;;;;;;;;;;;2126153;67;1929;-68
2021/05/31 08:42:49;;;;;;;;;;;;;;;;;;2126645;67;1099;-68
2021/05/31 08:45:16;;;;;;;;;;;;;;;;;;2128023;67;1159;-68
2021/05/31 08:47:43;;;;;;;;;;;;;;;;;;2127884;67;1369;-68
2021/05/31 08:50:09;;;;;;;;;;;;;;;;;;2129345;66;1224;-68
2021/05/31 08:52:35;;;;;;;;;;;;;;;;;;2128028;59;2614;-68
2021/05/31 08:55:00;;;;;;;;;;;;;;;;;;2126249;67;1544;-68
2021/05/31 08:57:26;;;;;;;;;;;;;;;;;;2127401;67;1538;-68
2021/05/31 08:59:52;;;;;;;;;;;;;;;;;;2127697;67;1922;-68
2021/05/31 09:02:17;;;;;;;;;;;;;;;;;;2127181;67;1205;-68
2021/05/31 09:04:51;;;;;;;;;;;;;;;;;;2128257;67;1348;-70
2021/05/31 09:07:19;;;;;;;;;;;;;;;;;;2127063;59;1421;-68
2021/05/31 09:09:45;;;;;;;;;;;;;;;;;;2127626;67;1420;-68
2021/05/31 09:12:11;;;;;;;;;;;;;;;;;;2126316;67;1337;-68
2021/05/31 09:14:37;;;;;;;;;;;;;;;;;;2128528;59;1735;-68
2021/05/31 09:17:03;;;;;;;;;;;;;;;;;;2128916;67;1888;-68
2021/05/31 09:19:29;;;;;;;;;;;;;;;;;;2128291;67;1923;-68
2021/05/31 09:21:54;;;;;;;;;;;;;;;;;;2128771;67;1383;-72
2021/05/31 09:24:23;;;;;;;;;;;;;;;;;;2127593;67;1238;-71
2021/05/31 09:26:52;;;;;;;;;;;;;;;;;;2124941;59;1702;-69
2021/05/31 09:29:18;;;;;;;;;;;;;;;;;;2127847;59;2775;-68
2021/05/31 09:31:43;;;;;;;;;;;;;;;;;;2127836;59;3408;-68
2021/05/31 09:34:10;;;;;;;;;;;;;;;;;;2127709;59;2049;-68
2021/05/31 09:36:53;;;;;;;;;;;;;;;;;;2128007;59;2428;-68
2021/05/31 09:39:21;;;;;;;;;;;;;;;;;;2127943;59;2153;-68
2021/05/31 09:41:46;;;;;;;;;;;;;;;;;;2127740;59;1846;-68
2021/05/31 09:44:11;;;;;;;;;;;;;;;;;;2128573;59;1868;-68
2021/05/31 09:46:46;;;;;;;;;;;;;;;;;;2127824;67;2057;-68
2021/05/31 09:49:16;;;;;;;;;;;;;;;;;;2125961;59;2178;-68
2021/05/31 09:51:49;;;;;;;;;;;;;;;;;;2124601;59;1915;-68
2021/05/31 09:54:14;;;;;;;;;;;;;;;;;;2126787;67;1241;-68
2021/05/31 09:56:39;;;;;;;;;;;;;;;;;;2125492;59;2500;-68
2021/05/31 09:59:05;;;;;;;;;;;;;;;;;;2129032;67;1837;-68
2021/05/31 10:01:38;;;;;;;;;;;;;;;;;;2127630;59;1959;-68
2021/05/31 10:04:21;;;;;;;;;;;;;;;;;;2129001;67;1174;-68
2021/05/31 10:06:54;;;;;;;;;;;;;;;;;;2127050;67;1384;-68
2021/05/31 10:09:19;;;;;;;;;;;;;;;;;;2127895;67;1442;-68
2021/05/31 10:11:45;;;;;;;;;;;;;;;;;;2127617;60;1919;-68
2021/05/31 10:14:13;;;;;;;;;;;;;;;;;;2126324;67;1357;-68
2021/05/31 10:16:39;;;;;;;;;;;;;;;;;;2126764;59;1650;-68
2021/05/31 10:19:04;;;;;;;;;;;;;;;;;;2128146;67;2067;-68
2021/05/31 10:21:30;;;;;;;;;;;;;;;;;;2127868;67;1922;-68
2021/05/31 10:23:56;;;;;;;;;;;;;;;;;;2128967;67;1408;-68
2021/05/31 10:26:22;;;;;;;;;;;;;;;;;;2124396;59;2052;-68
2021/05/31 10:28:48;;;;;;;;;;;;;;;;;;2128430;59;1728;-68
2021/05/31 10:31:13;;;;;;;;;;;;;;;;;;2131880;54;3600;-68
2021/05/31 10:33:39;;;;;;;;;;;;;;;;;;2130775;59;3263;-70
2021/05/31 10:36:09;;;;;;;;;;;;;;;;;;2131672;67;1719;-68
2021/05/31 10:38:36;;;;;;;;;;;;;;;;;;2132440;59;1157;-70
2021/05/31 10:41:09;;;;;;;;;;;;;;;;;;2132114;59;1924;-70
2021/05/31 10:43:41;;;;;;;;;;;;;;;;;;2132622;66;1248;-69
2021/05/31 10:46:06;;;;;;;;;;;;;;;;;;2132434;67;1005;-70
2021/05/31 10:48:41;;;;;;;;;;;;;;;;;;2132027;59;1498;-69
2021/05/31 10:51:14;;;;;;;;;;;;;;;;;;2132201;67;1227;-69
2021/05/31 10:53:40;;;;;;;;;;;;;;;;;;2132761;67;1234;-69
2021/05/31 10:56:08;;;;;;;;;;;;;;;;;;2129490;59;1772;-69
2021/05/31 10:58:41;;;;;;;;;;;;;;;;;;2131390;67;1204;-69
2021/05/31 11:01:08;;;;;;;;;;;;;;;;;;2131697;67;1925;-69
2021/05/31 11:03:47;;;;;;;;;;;;;;;;;;2132425;59;1439;-69
2021/05/31 11:06:16;;;;;;;;;;;;;;;;;;2131971;67;983;-69
2021/05/31 11:08:56;;;;;;;;;;;;;;;;;;2132184;59;1628;-69
2021/05/31 11:11:27;;;;;;;;;;;;;;;;;;2131499;59;1889;-69
2021/05/31 11:13:53;;;;;;;;;;;;;;;;;;2132149;67;1202;-69
2021/05/31 11:16:18;;;;;;;;;;;;;;;;;;2131531;67;1569;-69
2021/05/31 11:18:45;;;;;;;;;;;;;;;;;;2132452;67;1216;-69
2021/05/31 11:21:11;;;;;;;;;;;;;;;;;;2128579;67;1997;-69
2021/05/31 11:23:36;;;;;;;;;;;;;;;;;;2132844;67;1179;-69
2021/05/31 11:26:02;;;;;;;;;;;;;;;;;;2130116;67;1025;-69
2021/05/31 11:28:27;;;;;;;;;;;;;;;;;;2132856;66;1238;-69
2021/05/31 11:30:53;;;;;;;;;;;;;;;;;;2128999;66;1284;-69
2021/05/31 11:33:18;;;;;;;;;;;;;;;;;;2130352;59;2938;-69
2021/05/31 11:35:45;;;;;;;;;;;;;;;;;;2132075;67;1373;-69
2021/05/31 11:38:10;;;;;;;;;;;;;;;;;;2132584;67;1400;-68
2021/05/31 11:40:37;;;;;;;;;;;;;;;;;;2131922;67;1921;-69
2021/05/31 11:43:04;;;;;;;;;;;;;;;;;;2132856;66;1067;-69
2021/05/31 11:45:33;;;;;;;;;;;;;;;;;;2132344;66;1166;-69
2021/05/31 11:48:00;;;;;;;;;;;;;;;;;;2131696;59;1302;-69
2021/05/31 11:50:26;;;;;;;;;;;;;;;;;;2131654;66;1397;-68
2021/05/31 11:52:52;;;;;;;;;;;;;;;;;;2131934;67;1247;-69
2021/05/31 11:55:19;;;;;;;;;;;;;;;;;;2129387;66;1119;-69
2021/05/31 11:57:45;;;;;;;;;;;;;;;;;;2133104;67;1048;-69
2021/05/31 12:00:11;;;;;;;;;;;;;;;;;;2133157;66;1920;-69
2021/05/31 12:02:37;;;;;;;;;;;;;;;;;;2131806;59;1758;-69
2021/05/31 12:05:03;;;;;;;;;;;;;;;;;;2132502;59;1291;-69
2021/05/31 12:07:28;;;;;;;;;;;;;;;;;;2133454;67;1273;-68
2021/05/31 12:09:53;;;;;;;;;;;;;;;;;;2132733;67;1304;-69
2021/05/31 12:12:20;;;;;;;;;;;;;;;;;;2133045;67;1252;-69
2021/05/31 12:14:45;;;;;;;;;;;;;;;;;;2132735;59;1605;-69
2021/05/31 12:17:11;;;;;;;;;;;;;;;;;;2131929;67;1171;-69
2021/05/31 12:19:36;;;;;;;;;;;;;;;;;;2131325;59;1937;-69
2021/05/31 12:22:02;;;;;;;;;;;;;;;;;;2130696;59;1950;-68
2021/05/31 12:24:28;;;;;;;;;;;;;;;;;;2131136;59;1980;-68
2021/05/31 12:26:54;;;;;;;;;;;;;;;;;;2130752;67;1353;-69
2021/05/31 12:29:19;;;;;;;;;;;;;;;;;;2132760;59;1916;-68
2021/05/31 12:31:48;;;;;;;;;;;;;;;;;;2132577;67;1347;-68
2021/05/31 12:34:26;;;;;;;;;;;;;;;;;;2130560;59;2442;-68
2021/05/31 12:36:54;;;;;;;;;;;;;;;;;;2131411;67;1255;-68
2021/05/31 12:39:20;;;;;;;;;;;;;;;;;;2131875;67;1202;-68
2021/05/31 12:41:45;;;;;;;;;;;;;;;;;;2132065;66;1932;-68
2021/05/31 12:44:10;;;;;;;;;;;;;;;;;;2132295;67;1074;-68
2021/05/31 12:46:40;;;;;;;;;;;;;;;;;;2130504;67;1242;-68
2021/05/31 12:49:06;;;;;;;;;;;;;;;;;;2133968;66;1289;-68
2021/05/31 12:51:31;;;;;;;;;;;;;;;;;;2132322;67;2002;-68
2021/05/31 12:54:00;;;;;;;;;;;;;;;;;;2133104;67;1402;-68
2021/05/31 12:56:28;;;;;;;;;;;;;;;;;;2130431;67;1656;-68
2021/05/31 12:59:00;;;;;;;;;;;;;;;;;;2132164;67;1274;-68
2021/05/31 13:01:27;;;;;;;;;;;;;;;;;;2130478;66;1915;-68
2021/05/31 13:03:55;;;;;;;;;;;;;;;;;;2132691;66;1159;-68
2021/05/31 13:06:29;;;;;;;;;;;;;;;;;;2132626;66;1468;-68
2021/05/31 13:08:56;;;;;;;;;;;;;;;;;;2132059;67;1108;-68
2021/05/31 13:11:21;;;;;;;;;;;;;;;;;;2130977;66;1720;-69
2021/05/31 13:13:46;;;;;;;;;;;;;;;;;;2133016;67;1361;-69
2021/05/31 13:16:12;;;;;;;;;;;;;;;;;;2132062;59;1232;-76
2021/05/31 13:18:46;;;;;;;;;;;;;;;;;;2133175;67;1448;-68
2021/05/31 13:21:13;;;;;;;;;;;;;;;;;;2132314;67;1921;-68
2021/05/31 13:23:39;;;;;;;;;;;;;;;;;;2133165;66;1199;-67
2021/05/31 13:26:11;;;;;;;;;;;;;;;;;;2130464;66;1239;-67
2021/05/31 13:28:41;;;;;;;;;;;;;;;;;;2132965;66;1389;-70
2021/05/31 13:31:06;;;;;;;;;;;;;;;;;;2132187;59;1226;-69
2021/05/31 13:33:35;;;;;;;;;;;;;;;;;;2128518;59;2643;-69
2021/05/31 13:36:11;;;;;;;;;;;;;;;;;;2131713;59;2212;-71
2021/05/31 13:38:36;;;;;;;;;;;;;;;;;;2129900;66;1384;-70
2021/05/31 13:41:01;;;;;;;;;;;;;;;;;;2134817;66;1984;-68
2021/05/31 13:43:26;;;;;;;;;;;;;;;;;;2132702;67;1188;-68
2021/05/31 13:45:53;;;;;;;;;;;;;;;;;;2133116;67;1124;-69
2021/05/31 13:48:19;;;;;;;;;;;;;;;;;;2132186;59;1321;-70
2021/05/31 13:50:46;;;;;;;;;;;;;;;;;;2130672;59;1743;-70
2021/05/31 13:53:11;;;;;;;;;;;;;;;;;;2131716;59;2308;-68
2021/05/31 13:55:37;;;;;;;;;;;;;;;;;;2129631;67;1807;-68
2021/05/31 13:58:06;;;;;;;;;;;;;;;;;;2130553;59;1540;-68
2021/05/31 14:00:32;;;;;;;;;;;;;;;;;;2132157;59;1928;-68
2021/05/31 14:02:58;;;;;;;;;;;;;;;;;;2131738;67;1447;-70
2021/05/31 14:05:27;;;;;;;;;;;;;;;;;;2131555;59;1755;-69
2021/05/31 14:07:52;;;;;;;;;;;;;;;;;;2131306;59;1938;-70
2021/05/31 14:10:18;;;;;;;;;;;;;;;;;;2130873;59;2212;-70
2021/05/31 14:12:43;;;;;;;;;;;;;;;;;;2132115;59;2154;-70
2021/05/31 14:15:09;;;;;;;;;;;;;;;;;;2132232;59;1525;-70
2021/05/31 14:17:34;;;;;;;;;;;;;;;;;;2132247;67;1795;-69
2021/05/31 14:20:00;;;;;;;;;;;;;;;;;;2132100;67;2001;-69
2021/05/31 14:22:26;;;;;;;;;;;;;;;;;;2131806;67;1361;-69
2021/05/31 14:24:51;;;;;;;;;;;;;;;;;;2130890;67;1360;-69
2021/05/31 14:27:17;;;;;;;;;;;;;;;;;;2130194;59;2220;-69
2021/05/31 14:29:43;;;;;;;;;;;;;;;;;;2132168;59;1726;-69
2021/05/31 14:32:08;;;;;;;;;;;;;;;;;;2131919;59;1745;-69
2021/05/31 14:34:35;;;;;;;;;;;;;;;;;;2130910;67;2830;-69
2021/05/31 14:37:00;;;;;;;;;;;;;;;;;;2130673;59;2295;-69
2021/05/31 14:39:25;;;;;;;;;;;;;;;;;;2132013;67;1349;-69
2021/05/31 14:41:51;;;;;;;;;;;;;;;;;;2131995;59;1984;-69
2021/05/31 14:44:16;;;;;;;;;;;;;;;;;;2132613;67;1308;-69
2021/05/31 14:46:41;;;;;;;;;;;;;;;;;;2130691;59;1966;-69
2021/05/31 14:49:06;;;;;;;;;;;;;;;;;;2131853;67;1342;-69
2021/05/31 14:51:31;;;;;;;;;;;;;;;;;;2131796;59;1770;-69
2021/05/31 14:53:57;;;;;;;;;;;;;;;;;;2130273;59;2077;-69
2021/05/31 14:56:22;;;;;;;;;;;;;;;;;;2128888;59;1947;-69
2021/05/31 14:58:47;;;;;;;;;;;;;;;;;;2127123;59;2513;-70
2021/05/31 15:01:12;;;;;;;;;;;;;;;;;;2126996;59;2809;-70
2021/05/31 15:03:39;;;;;;;;;;;;;;;;;;2127800;59;2733;-70
2021/05/31 15:06:05;;;;;;;;;;;;;;;;;;2127444;59;2326;-70
2021/05/31 15:08:31;;;;;;;;;;;;;;;;;;2126868;59;1977;-68
2021/05/31 15:10:56;;;;;;;;;;;;;;;;;;2130704;59;2205;-68
2021/05/31 15:13:22;;;;;;;;;;;;;;;;;;2130953;59;2047;-70
2021/05/31 15:15:47;;;;;;;;;;;;;;;;;;2131550;59;2699;-69
2021/05/31 15:18:12;;;;;;;;;;;;;;;;;;2132472;66;1388;-71
2021/05/31 15:20:38;;;;;;;;;;;;;;;;;;2132870;67;1979;-69
2021/05/31 15:23:03;;;;;;;;;;;;;;;;;;2132222;66;1405;-69
2021/05/31 15:25:28;;;;;;;;;;;;;;;;;;2129607;66;1426;-69
2021/05/31 15:27:53;;;;;;;;;;;;;;;;;;2132191;67;1179;-69
2021/05/31 15:30:19;;;;;;;;;;;;;;;;;;2131816;67;1289;-69
2021/05/31 15:32:45;;;;;;;;;;;;;;;;;;2132283;66;1410;-69
2021/05/31 15:35:10;;;;;;;;;;;;;;;;;;2131734;59;1787;-69
2021/05/31 15:37:35;;;;;;;;;;;;;;;;;;2130480;59;2693;-69
2021/05/31 15:40:01;;;;;;;;;;;;;;;;;;2131067;59;2078;-69
2021/05/31 15:42:26;;;;;;;;;;;;;;;;;;2132291;59;1272;-69
2021/05/31 15:44:52;;;;;;;;;;;;;;;;;;2132614;67;1421;-69
2021/05/31 15:47:18;;;;;;;;;;;;;;;;;;2131773;59;1438;-69
2021/05/31 15:49:43;;;;;;;;;;;;;;;;;;2132725;66;1960;-69
2021/05/31 15:52:09;;;;;;;;;;;;;;;;;;2132302;67;1242;-69
2021/05/31 15:54:34;;;;;;;;;;;;;;;;;;2132237;66;1299;-69
2021/05/31 15:57:00;;;;;;;;;;;;;;;;;;2131025;67;1224;-69
2021/05/31 15:59:25;;;;;;;;;;;;;;;;;;2132250;67;1230;-69
2021/05/31 16:01:51;;;;;;;;;;;;;;;;;;2132786;67;1935;-69
2021/05/31 16:04:16;;;;;;;;;;;;;;;;;;2132659;67;1112;-69
2021/05/31 16:06:42;;;;;;;;;;;;;;;;;;2131895;67;1610;-70
2021/05/31 16:09:07;;;;;;;;;;;;;;;;;;2132633;67;1523;-69
2021/05/31 16:11:32;;;;;;;;;;;;;;;;;;2132193;67;1495;-69
2021/05/31 16:13:57;;;;;;;;;;;;;;;;;;2132764;67;1144;-69
2021/05/31 16:16:22;;;;;;;;;;;;;;;;;;2131941;59;1286;-69
2021/05/31 16:18:48;;;;;;;;;;;;;;;;;;2132626;67;1246;-69
2021/05/31 16:21:13;;;;;;;;;;;;;;;;;;2132713;67;1921;-69
2021/05/31 16:23:47;;;;;;;;;;;;;;;;;;2131042;59;1789;-69
2021/05/31 16:26:13;;;;;;;;;;;;;;;;;;2129685;67;1672;-69
2021/05/31 16:28:38;;;;;;;;;;;;;;;;;;2132653;59;1415;-69
2021/05/31 16:31:03;;;;;;;;;;;;;;;;;;2133925;59;2209;-68
2021/05/31 16:33:28;;;;;;;;;;;;;;;;;;2132084;59;1207;-68
2021/05/31 16:35:54;;;;;;;;;;;;;;;;;;2133162;59;1488;-69
2021/05/31 16:38:19;;;;;;;;;;;;;;;;;;2130169;59;2755;-70
2021/05/31 16:40:44;;;;;;;;;;;;;;;;;;2127496;66;1923;-68
2021/05/31 16:43:09;;;;;;;;;;;;;;;;;;2132381;59;1286;-70
2021/05/31 16:45:35;;;;;;;;;;;;;;;;;;2132374;67;1439;-69
2021/05/31 16:48:00;;;;;;;;;;;;;;;;;;2132937;59;1286;-68
2021/05/31 16:50:29;;;;;;;;;;;;;;;;;;2132568;59;1335;-70
2021/05/31 16:52:54;;;;;;;;;;;;;;;;;;2132938;67;1236;-69
2021/05/31 16:55:19;;;;;;;;;;;;;;;;;;2129503;67;1364;-70
2021/05/31 16:57:45;;;;;;;;;;;;;;;;;;2132119;67;1158;-70
2021/05/31 17:00:11;;;;;;;;;;;;;;;;;;2132164;67;1975;-69
2021/05/31 17:02:36;;;;;;;;;;;;;;;;;;2132660;67;1252;-70
2021/05/31 17:05:02;;;;;;;;;;;;;;;;;;2133790;59;1204;-69
2021/05/31 17:07:28;;;;;;;;;;;;;;;;;;2131828;59;1509;-67
2021/05/31 17:09:58;;;;;;;;;;;;;;;;;;2132623;67;1278;-69